createdAt,value
2019-02-05T00:02:09.707Z,10.43
2019-02-05T00:04:40.243Z,10.63
2019-02-05T00:07:10.907Z,9.53
2019-02-05T00:09:44.151Z,10.30
2019-02-05T00:12:14.679Z,10.90
2019-02-05T00:14:45.248Z,10.97
2019-02-05T00:17:15.845Z,10.97
2019-02-05T00:19:48.034Z,11.00
2019-02-05T00:22:18.879Z,11.27
2019-02-05T00:24:49.555Z,11.33
2019-02-05T00:27:21.225Z,11.15
2019-02-05T00:29:51.924Z,11.87
2019-02-05T00:32:22.725Z,11.70
2019-02-05T00:34:54.892Z,10.90
2019-02-05T00:37:27.329Z,11.73
2019-02-05T00:39:57.900Z,11.20
2019-02-05T00:42:28.693Z,10.63
2019-02-05T00:44:59.218Z,10.83
2019-02-05T00:47:32.240Z,10.03
2019-02-05T00:50:02.032Z,10.07
2019-02-05T00:52:33.146Z,10.32
2019-02-05T00:55:04.608Z,10.23
2019-02-05T00:57:35.287Z,10.87
2019-02-05T01:00:19.655Z,10.10
2019-02-05T01:02:50.616Z,9.63
2019-02-05T01:05:21.462Z,10.90
2019-02-05T01:07:52.381Z,11.70
2019-02-05T01:10:25.140Z,11.20
2019-02-05T01:12:56.252Z,10.73
2019-02-05T01:15:29.468Z,11.65
2019-02-05T01:18:02.045Z,11.37
2019-02-05T01:20:32.880Z,11.53
2019-02-05T01:23:03.459Z,11.47
2019-02-05T01:25:34.824Z,10.70
2019-02-05T01:28:05.522Z,11.87
2019-02-05T01:30:36.303Z,11.60
2019-02-05T01:33:06.939Z,10.93
2019-02-05T01:35:37.533Z,10.82
2019-02-05T01:38:08.432Z,12.30
2019-02-05T01:40:38.983Z,11.17
2019-02-05T01:43:09.534Z,11.77
2019-02-05T01:45:40.068Z,11.20
2019-02-05T01:48:10.905Z,11.10
2019-02-05T01:50:41.399Z,10.90
2019-02-05T01:53:11.903Z,12.07
2019-02-05T01:55:42.506Z,10.93
2019-02-05T01:58:13.169Z,10.53
2019-02-05T02:00:43.945Z,10.93
2019-02-05T02:03:14.455Z,11.77
2019-02-05T02:05:45.301Z,12.63
2019-02-05T02:08:16.023Z,12.90
2019-02-05T02:10:46.867Z,12.03
2019-02-05T02:13:17.369Z,12.00
2019-02-05T02:15:48.082Z,12.30
2019-02-05T02:18:19.053Z,12.37
2019-02-05T02:20:49.548Z,11.73
2019-02-05T02:23:21.354Z,12.07
2019-02-05T02:25:51.941Z,11.07
2019-02-05T02:28:22.890Z,11.10
2019-02-05T02:30:53.409Z,12.03
2019-02-05T02:33:24.267Z,12.43
2019-02-05T02:35:55.042Z,12.47
2019-02-05T02:38:25.603Z,11.20
2019-02-05T02:40:56.186Z,11.50
2019-02-05T02:43:27.258Z,10.68
2019-02-05T02:45:58.173Z,11.77
2019-02-05T02:48:28.692Z,12.07
2019-02-05T02:50:59.180Z,11.83
2019-02-05T02:53:29.674Z,11.20
2019-02-05T02:56:00.198Z,12.13
2019-02-05T02:58:31.392Z,11.48
2019-02-05T03:01:02.322Z,12.27
2019-02-05T03:03:33.121Z,12.68
2019-02-05T03:06:03.710Z,11.77
2019-02-05T03:08:34.321Z,11.10
2019-02-05T03:11:05.508Z,11.00
2019-02-05T03:13:36.713Z,11.07
2019-02-05T03:16:07.184Z,12.27
2019-02-05T03:18:37.687Z,11.33
2019-02-05T03:21:08.378Z,11.43
2019-02-05T03:23:39.104Z,11.67
2019-02-05T03:26:09.611Z,11.87
2019-02-05T03:28:40.132Z,12.13
2019-02-05T03:31:10.662Z,11.27
2019-02-05T03:33:41.314Z,11.07
2019-02-05T03:36:12.071Z,11.77
2019-02-05T03:38:42.590Z,10.33
2019-02-05T03:41:13.288Z,10.93
2019-02-05T03:43:44.419Z,11.10
2019-02-05T03:46:16.918Z,11.15
2019-02-05T03:48:49.890Z,11.27
2019-02-05T03:52:08.864Z,11.15
2019-02-05T03:55:35.682Z,13.27
2019-02-05T03:58:53.955Z,11.37
2019-02-05T04:02:05.553Z,10.90
2019-02-05T04:05:34.063Z,10.37
2019-02-05T04:09:00.242Z,11.23
2019-02-05T04:12:28.785Z,11.20
2019-02-05T04:15:45.298Z,11.30
2019-02-05T04:19:00.492Z,10.75
2019-02-05T04:22:44.629Z,10.20
2019-02-05T04:25:59.191Z,10.37
2019-02-05T04:29:41.737Z,11.63
2019-02-05T04:33:11.641Z,11.50
2019-02-05T04:36:40.867Z,11.30
2019-02-05T04:40:20.771Z,12.83
2019-02-05T04:43:51.794Z,10.30
2019-02-05T04:47:13.843Z,10.57
2019-02-05T04:51:05.678Z,10.20
2019-02-05T04:54:21.585Z,11.13
2019-02-05T04:57:41.469Z,11.13
2019-02-05T05:01:30.525Z,11.15
2019-02-05T05:04:49.512Z,10.35
2019-02-05T05:08:14.602Z,11.78
2019-02-05T05:10:45.488Z,10.60
2019-02-05T05:13:16.099Z,10.67
2019-02-05T05:15:46.661Z,11.30
2019-02-05T05:18:17.416Z,12.60
2019-02-05T05:20:48.850Z,11.97
2019-02-05T05:23:19.843Z,10.47
2019-02-05T05:25:50.414Z,11.97
2019-02-05T05:28:22.216Z,11.45
2019-02-05T05:30:53.457Z,10.88
2019-02-05T05:33:24.469Z,10.90
2019-02-05T05:35:55.373Z,10.45
2019-02-05T05:38:26.141Z,11.25
2019-02-05T05:40:56.643Z,10.70
2019-02-05T05:43:27.695Z,11.28
2019-02-05T05:45:58.801Z,11.77
2019-02-05T05:48:29.570Z,11.43
2019-02-05T05:51:00.469Z,11.70
2019-02-05T05:53:31.095Z,11.50
2019-02-05T05:56:01.637Z,11.30
2019-02-05T05:58:32.693Z,11.80
2019-02-05T06:01:03.630Z,12.03
2019-02-05T06:03:34.489Z,12.50
2019-02-05T06:06:05.392Z,10.43
2019-02-05T06:08:36.079Z,11.23
2019-02-05T06:11:06.750Z,12.03
2019-02-05T06:13:37.768Z,10.53
2019-02-05T06:16:08.647Z,11.57
2019-02-05T06:18:39.509Z,11.55
2019-02-05T06:21:10.037Z,11.70
2019-02-05T06:23:40.669Z,11.60
2019-02-05T06:26:11.453Z,10.75
2019-02-05T06:28:42.505Z,11.93
2019-02-05T06:31:13.111Z,12.97
2019-02-05T06:33:46.652Z,12.70
2019-02-05T06:36:17.419Z,12.23
2019-02-05T06:38:47.962Z,12.13
2019-02-05T06:41:18.569Z,12.27
2019-02-05T06:43:49.206Z,11.40
2019-02-05T06:46:19.739Z,12.20
2019-02-05T06:48:50.252Z,12.57
2019-02-05T06:51:22.160Z,12.18
2019-02-05T06:53:52.688Z,11.27
2019-02-05T06:56:23.647Z,12.27
2019-02-05T06:58:54.166Z,10.53
2019-02-05T07:01:25.016Z,12.70
2019-02-05T07:03:55.866Z,11.60
2019-02-05T07:06:26.657Z,10.80
2019-02-05T07:08:57.136Z,12.10
2019-02-05T07:11:27.657Z,11.80
2019-02-05T07:13:58.340Z,12.03
2019-02-05T07:16:29.199Z,12.53
2019-02-05T07:18:59.928Z,12.60
2019-02-05T07:21:30.715Z,13.13
2019-02-05T07:24:01.540Z,12.45
2019-02-05T07:26:32.073Z,12.75
2019-02-05T07:29:02.661Z,13.03
2019-02-05T07:31:33.457Z,12.43
2019-02-05T07:34:03.966Z,13.07
2019-02-05T07:36:34.743Z,14.30
2019-02-05T07:39:08.623Z,12.03
2019-02-05T07:41:39.507Z,13.33
2019-02-05T07:44:09.981Z,13.13
2019-02-05T07:46:40.687Z,12.57
2019-02-05T07:49:11.229Z,14.13
2019-02-05T07:51:41.813Z,13.17
2019-02-05T07:54:12.344Z,13.97
2019-02-05T07:56:42.818Z,12.57
2019-02-05T07:59:13.298Z,13.27
2019-02-05T08:01:43.814Z,14.00
2019-02-05T08:04:14.295Z,15.37
2019-02-05T08:06:44.799Z,13.10
2019-02-05T08:09:15.274Z,13.60
2019-02-05T08:11:45.786Z,15.83
2019-02-05T08:14:16.337Z,13.53
2019-02-05T08:16:48.031Z,13.70
2019-02-05T08:19:19.390Z,13.83
2019-02-05T08:21:49.957Z,15.23
2019-02-05T08:24:21.956Z,14.97
2019-02-05T08:26:52.767Z,14.47
2019-02-05T08:29:23.353Z,14.20
2019-02-05T08:31:53.829Z,13.13
2019-02-05T08:34:24.339Z,13.67
2019-02-05T08:36:54.943Z,14.03
2019-02-05T08:39:25.772Z,14.43
2019-02-05T08:41:56.764Z,14.47
2019-02-05T08:44:27.274Z,14.97
2019-02-05T08:46:57.813Z,13.87
2019-02-05T08:49:28.339Z,13.85
2019-02-05T08:51:58.987Z,14.43
2019-02-05T08:54:29.825Z,11.93
2019-02-05T08:57:00.846Z,13.67
2019-02-05T08:59:31.300Z,13.53
2019-02-05T09:02:01.879Z,13.03
2019-02-05T09:04:32.674Z,13.80
2019-02-05T09:07:03.187Z,13.70
2019-02-05T09:09:34.090Z,13.35
2019-02-05T09:12:04.988Z,13.93
2019-02-05T09:14:36.141Z,13.68
2019-02-05T09:17:06.911Z,13.50
2019-02-05T09:19:37.482Z,13.20
2019-02-05T09:22:08.151Z,13.50
2019-02-05T09:24:38.980Z,12.70
2019-02-05T09:27:10.001Z,14.17
2019-02-05T09:29:40.558Z,14.07
2019-02-05T09:32:11.140Z,13.27
2019-02-05T09:34:41.958Z,13.00
2019-02-05T09:37:12.518Z,12.57
2019-02-05T09:39:43.129Z,12.57
2019-02-05T09:42:14.019Z,13.90
2019-02-05T09:44:44.509Z,12.70
2019-02-05T09:47:15.156Z,12.63
2019-02-05T09:49:46.034Z,13.73
2019-02-05T09:52:16.522Z,12.80
2019-02-05T09:54:47.225Z,13.30
2019-02-05T09:57:18.119Z,13.00
2019-02-05T09:59:48.912Z,13.78
2019-02-05T10:02:19.577Z,13.43
2019-02-05T10:04:50.061Z,12.70
2019-02-05T10:07:21.716Z,13.33
2019-02-05T10:09:52.481Z,12.63
2019-02-05T10:12:23.373Z,13.53
2019-02-05T10:14:54.139Z,11.90
2019-02-05T10:17:24.667Z,13.37
2019-02-05T10:19:55.213Z,12.57
2019-02-05T10:22:26.361Z,13.93
2019-02-05T10:24:57.317Z,11.87
2019-02-05T10:27:28.188Z,12.75
2019-02-05T10:29:59.620Z,14.47
2019-02-05T10:32:30.376Z,11.35
2019-02-05T10:35:02.755Z,12.23
2019-02-05T10:37:33.614Z,13.32
2019-02-05T10:40:04.575Z,13.43
2019-02-05T10:42:35.462Z,12.17
2019-02-05T10:45:08.559Z,12.43
2019-02-05T10:47:40.921Z,12.33
2019-02-05T10:50:13.761Z,11.83
2019-02-05T10:52:44.885Z,11.70
2019-02-05T10:55:17.025Z,12.40
2019-02-05T10:57:47.779Z,12.53
2019-02-05T11:00:25.868Z,12.40
2019-02-05T11:02:59.239Z,12.67
2019-02-05T11:05:31.821Z,12.28
2019-02-05T11:08:02.626Z,11.13
2019-02-05T11:10:33.491Z,12.00
2019-02-05T11:13:05.063Z,10.97
2019-02-05T11:15:35.561Z,12.20
2019-02-05T11:18:09.435Z,10.20
2019-02-05T11:20:40.436Z,11.00
2019-02-05T11:23:11.254Z,12.77
2019-02-05T11:25:42.173Z,11.07
2019-02-05T11:28:12.781Z,11.13
2019-02-05T11:30:45.779Z,10.73
2019-02-05T11:33:16.877Z,10.47
2019-02-05T11:35:47.485Z,10.50
2019-02-05T11:38:18.236Z,10.87
2019-02-05T11:40:49.203Z,10.03
2019-02-05T11:43:19.713Z,10.47
2019-02-05T11:45:50.508Z,10.93
2019-02-05T11:48:22.477Z,11.10
2019-02-05T11:50:53.251Z,11.93
2019-02-05T11:53:24.318Z,11.15
2019-02-05T11:55:54.888Z,11.53
2019-02-05T11:58:25.728Z,11.07
2019-02-05T12:01:00.643Z,12.10
2019-02-05T12:03:31.591Z,11.05
2019-02-05T12:06:02.365Z,10.53
2019-02-05T12:08:32.871Z,11.30
2019-02-05T12:11:03.417Z,10.53
2019-02-05T12:13:34.517Z,11.38
2019-02-05T12:16:05.713Z,11.97
2019-02-05T12:18:36.491Z,11.35
2019-02-05T12:21:07.348Z,12.37
2019-02-05T12:23:38.526Z,11.08
2019-02-05T12:26:09.446Z,10.53
2019-02-05T12:28:39.954Z,10.68
2019-02-05T12:31:10.759Z,14.13
2019-02-05T12:33:41.544Z,10.57
2019-02-05T12:36:12.466Z,12.03
2019-02-05T12:38:43.314Z,11.18
2019-02-05T12:41:13.872Z,11.67
2019-02-05T12:43:44.355Z,11.00
2019-02-05T12:46:14.937Z,11.30
2019-02-05T12:48:45.556Z,11.03
2019-02-05T12:51:16.484Z,12.23
2019-02-05T12:53:47.012Z,11.20
2019-02-05T12:56:17.594Z,11.23
2019-02-05T12:58:48.410Z,10.60
2019-02-05T13:01:18.948Z,10.90
2019-02-05T13:03:49.581Z,10.33
2019-02-05T13:06:20.396Z,10.90
2019-02-05T13:08:50.960Z,10.87
2019-02-05T13:11:22.827Z,10.35
2019-02-05T13:13:53.490Z,10.30
2019-02-05T13:16:24.277Z,11.40
2019-02-05T13:18:54.841Z,10.73
2019-02-05T13:21:25.619Z,10.93
2019-02-05T13:23:56.461Z,11.00
2019-02-05T13:26:27.461Z,10.73
2019-02-05T13:28:57.959Z,10.17
2019-02-05T13:31:28.854Z,11.10
2019-02-05T13:33:59.569Z,10.58
2019-02-05T13:36:30.433Z,9.70
2019-02-05T13:39:01.508Z,10.77
2019-02-05T13:41:32.629Z,10.18
2019-02-05T13:44:03.190Z,10.40
2019-02-05T13:46:34.021Z,9.33
2019-02-05T13:49:04.990Z,9.50
2019-02-05T13:51:35.786Z,10.32
2019-02-05T13:54:06.976Z,9.60
2019-02-05T13:56:37.791Z,9.23
2019-02-05T13:59:08.597Z,10.13
2019-02-05T14:01:39.410Z,9.98
2019-02-05T14:04:09.959Z,9.87
2019-02-05T14:06:40.784Z,12.50
2019-02-05T14:09:14.237Z,8.80
2019-02-05T14:11:44.777Z,9.13
2019-02-05T14:14:15.656Z,8.33
2019-02-05T14:16:46.162Z,8.47
2019-02-05T14:19:16.972Z,7.40
2019-02-05T14:21:47.776Z,7.43
2019-02-05T14:24:18.639Z,8.43
2019-02-05T14:26:49.150Z,7.00
2019-02-05T14:29:19.795Z,7.10
2019-02-05T14:31:50.724Z,7.47
2019-02-05T14:34:23.040Z,8.00
2019-02-05T14:36:53.911Z,7.60
2019-02-05T14:39:24.761Z,8.00
2019-02-05T14:41:55.567Z,7.95
2019-02-05T14:44:26.639Z,8.25
2019-02-05T14:46:57.235Z,8.40
2019-02-05T14:49:28.044Z,8.10
2019-02-05T14:51:58.867Z,7.90
2019-02-05T14:54:29.641Z,7.62
2019-02-05T14:57:00.205Z,7.77
2019-02-05T14:59:31.019Z,8.25
2019-02-05T15:02:01.867Z,7.50
2019-02-05T15:04:33.026Z,8.28
2019-02-05T15:07:06.191Z,8.23
2019-02-05T15:09:39.919Z,8.30
2019-02-05T15:12:10.724Z,8.63
2019-02-05T15:14:41.274Z,7.67
2019-02-05T15:17:11.911Z,8.00
2019-02-05T15:19:42.738Z,8.47
2019-02-05T15:22:13.535Z,7.97
2019-02-05T15:24:45.216Z,8.37
2019-02-05T15:27:15.903Z,8.03
2019-02-05T15:29:46.738Z,7.90
2019-02-05T15:32:36.214Z,8.07
2019-02-05T15:35:07.777Z,8.60
2019-02-05T15:37:38.306Z,8.53
2019-02-05T15:40:10.506Z,7.80
2019-02-05T15:42:41.400Z,8.17
2019-02-05T15:45:12.757Z,7.87
2019-02-05T15:47:43.826Z,8.93
2019-02-05T15:50:14.588Z,8.53
2019-02-05T15:52:45.161Z,8.43
2019-02-05T15:55:17.644Z,8.03
2019-02-05T15:57:48.367Z,8.00
2019-02-05T16:00:19.392Z,7.97
2019-02-05T16:02:49.934Z,8.43
2019-02-05T16:05:20.826Z,8.28
2019-02-05T16:07:51.408Z,8.47
2019-02-05T16:10:23.215Z,9.90
2019-02-05T16:12:53.959Z,9.53
2019-02-05T16:15:24.833Z,9.08
2019-02-05T16:17:55.400Z,9.47
2019-02-05T16:20:26.234Z,10.10
2019-02-05T16:22:56.868Z,9.00
2019-02-05T16:25:27.397Z,9.33
2019-02-05T16:27:58.103Z,9.33
2019-02-05T16:30:29.106Z,9.43
2019-02-05T16:32:59.892Z,9.50
2019-02-05T16:35:30.730Z,10.17
2019-02-05T16:38:01.319Z,9.33
2019-02-05T16:40:32.319Z,11.23
2019-02-05T16:43:03.123Z,12.30
2019-02-05T16:45:34.216Z,12.65
2019-02-05T16:48:05.412Z,11.17
2019-02-05T16:50:39.953Z,11.30
2019-02-05T16:53:10.840Z,12.07
2019-02-05T16:55:41.347Z,12.37
2019-02-05T16:58:12.125Z,12.70
2019-02-05T17:00:42.818Z,13.07
2019-02-05T17:03:13.389Z,13.60
2019-02-05T17:05:44.259Z,14.57
2019-02-05T17:08:15.023Z,13.83
2019-02-05T17:10:45.595Z,14.77
2019-02-05T17:13:16.235Z,14.43
2019-02-05T17:15:47.121Z,13.97
2019-02-05T17:18:23.619Z,12.50
2019-02-05T17:20:50.436Z,12.60
2019-02-05T17:23:20.978Z,14.50
2019-02-05T17:25:51.515Z,12.73
2019-02-05T17:28:23.548Z,12.75
2019-02-05T17:30:54.080Z,12.67
2019-02-05T17:33:24.593Z,12.97
2019-02-05T17:35:55.353Z,12.93
2019-02-05T17:38:26.317Z,12.70
2019-02-05T17:40:57.087Z,14.13
2019-02-05T17:43:27.776Z,12.60
2019-02-05T17:45:58.460Z,13.00
2019-02-05T17:48:29.300Z,11.78
2019-02-05T17:51:00.129Z,10.32
2019-02-05T17:53:30.732Z,11.97
2019-02-05T17:56:01.332Z,12.47
2019-02-05T17:58:32.183Z,11.17
2019-02-05T18:01:15.828Z,11.03
2019-02-05T18:03:46.439Z,11.97
2019-02-05T18:06:17.318Z,11.60
2019-02-05T18:08:48.158Z,12.13
2019-02-05T18:11:18.763Z,12.00
2019-02-05T18:13:49.467Z,11.97
2019-02-05T18:16:21.164Z,11.43
2019-02-05T18:18:52.033Z,12.03
2019-02-05T18:21:23.438Z,11.18
2019-02-05T18:23:54.446Z,12.40
2019-02-05T18:26:25.334Z,11.60
2019-02-05T18:28:56.227Z,12.80
2019-02-05T18:31:27.162Z,14.25
2019-02-05T18:33:57.830Z,14.00
2019-02-05T18:36:28.716Z,13.20
2019-02-05T18:38:59.607Z,13.80
2019-02-05T18:41:30.550Z,14.20
2019-02-05T18:44:01.139Z,14.03
2019-02-05T18:46:31.681Z,13.72
2019-02-05T18:49:05.094Z,14.50
2019-02-05T18:51:34.583Z,13.18
2019-02-05T18:54:05.571Z,13.70
2019-02-05T18:56:36.474Z,13.72
2019-02-05T18:59:07.205Z,12.90
2019-02-05T19:01:37.835Z,13.08
2019-02-05T19:04:08.482Z,11.83
2019-02-05T19:06:39.415Z,12.58
2019-02-05T19:09:14.797Z,13.67
2019-02-05T19:11:45.705Z,13.77
2019-02-05T19:14:16.360Z,12.63
2019-02-05T19:16:47.325Z,13.47
2019-02-05T19:19:18.342Z,13.55
2019-02-05T19:21:48.896Z,12.83
2019-02-05T19:24:36.917Z,14.73
2019-02-05T19:27:07.742Z,15.10
2019-02-05T19:29:38.761Z,15.33
2019-02-05T19:32:09.562Z,14.03
2019-02-05T19:34:40.692Z,13.65
2019-02-05T19:37:11.489Z,13.57
2019-02-05T19:39:42.035Z,13.20
2019-02-05T19:42:12.973Z,13.30
2019-02-05T19:44:48.490Z,13.33
2019-02-05T19:47:23.477Z,13.40
2019-02-05T19:49:56.866Z,12.03
2019-02-05T19:52:27.904Z,11.65
2019-02-05T19:54:58.598Z,12.97
2019-02-05T19:57:29.955Z,12.68
2019-02-05T20:00:00.770Z,12.10
2019-02-05T20:02:31.399Z,11.68
2019-02-05T20:05:02.242Z,11.63
2019-02-05T20:07:32.843Z,11.68
2019-02-05T20:10:03.614Z,11.93
2019-02-05T20:12:34.430Z,10.88
2019-02-05T20:15:07.429Z,11.15
2019-02-05T20:17:38.047Z,11.87
2019-02-05T20:20:10.991Z,10.50
2019-02-05T20:22:41.782Z,10.57
2019-02-05T20:25:13.998Z,11.97
2019-02-05T20:27:44.709Z,11.50
2019-02-05T20:30:17.034Z,11.93
2019-02-05T20:32:47.563Z,12.60
2019-02-05T20:35:18.561Z,11.47
2019-02-05T20:37:49.358Z,10.80
2019-02-05T20:40:20.973Z,12.70
2019-02-05T20:42:51.634Z,13.47
2019-02-05T20:45:24.099Z,12.53
2019-02-05T20:47:56.063Z,12.57
2019-02-05T20:50:26.883Z,11.63
2019-02-05T20:52:57.739Z,12.40
2019-02-05T20:55:28.630Z,12.53
2019-02-05T20:57:59.518Z,12.47
2019-02-05T21:00:30.563Z,12.88
2019-02-05T21:03:01.754Z,13.77
2019-02-05T21:05:32.729Z,12.97
2019-02-05T21:08:03.543Z,13.43
2019-02-05T21:10:34.585Z,11.57
2019-02-05T21:13:05.543Z,11.60
2019-02-05T21:15:36.366Z,12.58
2019-02-05T21:18:07.028Z,11.93
2019-02-05T21:20:37.683Z,11.70
2019-02-05T21:23:08.549Z,12.03
2019-02-05T21:25:39.484Z,11.20
2019-02-05T21:28:10.165Z,12.43
2019-02-05T21:30:41.060Z,12.23
2019-02-05T21:33:11.610Z,12.47
2019-02-05T21:35:42.527Z,12.83
2019-02-05T21:38:13.237Z,12.57
2019-02-05T21:40:43.898Z,11.47
2019-02-05T21:43:14.791Z,12.07
2019-02-05T21:45:45.792Z,12.63
2019-02-05T21:48:16.581Z,12.20
2019-02-05T21:50:47.172Z,12.80
2019-02-05T21:53:17.789Z,13.30
2019-02-05T21:55:48.531Z,13.80
2019-02-05T21:58:19.080Z,12.20
2019-02-05T22:00:49.779Z,12.83
2019-02-05T22:03:20.675Z,13.17
2019-02-05T22:05:51.691Z,13.43
2019-02-05T22:08:23.982Z,13.40
2019-02-05T22:10:54.605Z,12.73
2019-02-05T22:13:25.643Z,11.97
2019-02-05T22:15:56.229Z,12.73
2019-02-05T22:18:26.992Z,13.40
2019-02-05T22:20:57.701Z,12.63
2019-02-05T22:23:28.586Z,13.47
2019-02-05T22:25:59.121Z,12.33
2019-02-05T22:28:31.173Z,11.80
2019-02-05T22:31:01.787Z,11.17
2019-02-05T22:33:33.045Z,12.37
2019-02-05T22:36:03.956Z,12.83
2019-02-05T22:38:34.944Z,12.40
2019-02-05T22:41:05.842Z,11.40
2019-02-05T22:43:36.482Z,12.50
2019-02-05T22:46:07.064Z,13.20
2019-02-05T22:48:38.111Z,12.50
2019-02-05T22:51:08.773Z,12.23
2019-02-05T22:53:39.922Z,12.45
2019-02-05T22:56:10.663Z,11.67
2019-02-05T22:58:41.681Z,13.03
2019-02-05T23:01:46.373Z,12.13
2019-02-05T23:04:50.654Z,13.57
2019-02-05T23:07:23.788Z,12.27
2019-02-05T23:11:03.087Z,13.03
2019-02-05T23:13:27.959Z,12.43
2019-02-05T23:15:58.939Z,12.23
2019-02-05T23:18:29.781Z,12.45
2019-02-05T23:21:00.617Z,12.00
2019-02-05T23:23:31.210Z,12.47
2019-02-05T23:26:01.776Z,13.33
2019-02-05T23:28:33.014Z,14.03
2019-02-05T23:31:04.089Z,13.97
2019-02-05T23:33:35.028Z,13.25
2019-02-05T23:36:05.864Z,13.00
2019-02-05T23:38:36.733Z,13.37
2019-02-05T23:41:07.339Z,13.43
2019-02-05T23:43:38.093Z,13.18
2019-02-05T23:46:08.869Z,12.83
2019-02-05T23:48:39.692Z,14.00
2019-02-05T23:51:10.241Z,13.03
2019-02-05T23:53:40.776Z,13.53
2019-02-05T23:56:11.758Z,13.57
2019-02-05T23:58:42.263Z,13.37
